createdAt,value
2018-04-11T00:00:32.809Z,0.00
2018-04-11T00:02:25.775Z,0.00
2018-04-11T00:03:25.770Z,0.00
2018-04-11T00:05:18.759Z,0.00
2018-04-11T00:06:18.704Z,0.00
2018-04-11T00:08:11.743Z,0.00
2018-04-11T00:09:11.662Z,0.00
2018-04-11T00:11:05.085Z,0.00
2018-04-11T00:12:05.182Z,0.00
2018-04-11T00:13:58.063Z,0.00
2018-04-11T00:14:58.053Z,0.00
2018-04-11T00:16:51.045Z,0.00
2018-04-11T00:17:50.998Z,0.00
2018-04-11T00:19:43.998Z,0.00
2018-04-11T00:20:44.009Z,0.00
2018-04-11T00:22:36.949Z,0.00
2018-04-11T00:23:36.947Z,0.00
2018-04-11T00:25:29.910Z,0.00
2018-04-11T00:26:29.940Z,0.00
2018-04-11T00:28:22.888Z,0.00
2018-04-11T00:29:22.913Z,0.00
2018-04-11T00:31:16.806Z,0.00
2018-04-11T00:32:16.819Z,0.00
2018-04-11T00:34:09.769Z,0.00
2018-04-11T00:35:09.782Z,0.00
2018-04-11T00:37:02.718Z,0.00
2018-04-11T00:38:02.752Z,0.00
2018-04-11T00:39:57.179Z,0.00
2018-04-11T00:40:57.193Z,0.00
2018-04-11T00:42:50.118Z,0.00
2018-04-11T00:43:50.144Z,0.00
2018-04-11T00:45:43.063Z,0.00
2018-04-11T00:46:43.072Z,0.00
2018-04-11T00:48:36.011Z,0.00
2018-04-11T00:49:36.047Z,0.00
2018-04-11T00:51:28.949Z,0.00
2018-04-11T00:52:29.059Z,0.00
2018-04-11T00:54:21.895Z,0.00
2018-04-11T00:55:21.909Z,0.00
2018-04-11T00:57:15.326Z,0.00
2018-04-11T00:58:15.337Z,0.00
2018-04-11T01:00:08.300Z,0.00
2018-04-11T01:01:08.291Z,0.00
2018-04-11T01:03:01.281Z,0.00
2018-04-11T01:04:01.237Z,0.00
2018-04-11T01:05:54.188Z,0.00
2018-04-11T01:06:54.180Z,0.00
2018-04-11T01:08:47.155Z,0.00
2018-04-11T01:09:47.127Z,0.00
2018-04-11T01:11:40.077Z,0.00
2018-04-11T01:12:40.092Z,0.00
2018-04-11T01:14:33.566Z,0.00
2018-04-11T01:15:33.537Z,0.00
2018-04-11T01:16:33.568Z,0.00
2018-04-11T01:17:33.571Z,0.00
2018-04-11T01:18:33.589Z,0.00
2018-04-11T01:19:33.610Z,0.00
2018-04-11T01:20:33.629Z,0.00
2018-04-11T01:21:33.651Z,0.00
2018-04-11T01:22:33.668Z,0.00
2018-04-11T01:23:33.690Z,0.00
2018-04-11T01:24:33.709Z,0.00
2018-04-11T01:25:33.729Z,0.00
2018-04-11T01:26:33.746Z,0.00
2018-04-11T01:27:33.836Z,0.00
2018-04-11T01:28:33.808Z,0.00
2018-04-11T01:29:33.885Z,0.00
2018-04-11T01:30:33.830Z,0.00
2018-04-11T01:31:33.859Z,0.00
2018-04-11T01:32:33.867Z,0.00
2018-04-11T01:33:33.887Z,0.00
2018-04-11T01:34:33.906Z,0.00
2018-04-11T01:35:33.969Z,0.00
2018-04-11T01:36:33.958Z,0.00
2018-04-11T01:37:33.964Z,0.00
2018-04-11T01:38:33.988Z,0.00
2018-04-11T01:39:34.003Z,0.00
2018-04-11T01:40:34.046Z,0.00
2018-04-11T01:41:34.046Z,0.00
2018-04-11T01:42:34.079Z,0.00
2018-04-11T01:43:34.085Z,0.00
2018-04-11T01:44:34.167Z,0.00
2018-04-11T01:45:34.124Z,0.00
2018-04-11T01:46:34.152Z,0.00
2018-04-11T01:47:34.164Z,0.00
2018-04-11T01:48:34.204Z,0.00
2018-04-11T01:49:34.206Z,0.00
2018-04-11T01:50:34.226Z,0.00
2018-04-11T01:51:34.245Z,0.00
2018-04-11T01:52:34.264Z,0.00
2018-04-11T01:53:34.286Z,0.00
2018-04-11T01:54:34.305Z,0.00
2018-04-11T01:55:34.328Z,0.00
2018-04-11T01:56:34.344Z,0.00
2018-04-11T01:57:34.415Z,0.00
2018-04-11T01:58:34.388Z,0.00
2018-04-11T01:59:34.431Z,0.00
2018-04-11T02:00:34.425Z,0.00
2018-04-11T02:01:34.454Z,0.00
2018-04-11T02:02:34.464Z,0.00
2018-04-11T02:03:34.504Z,0.00
2018-04-11T02:04:34.502Z,0.00
2018-04-11T02:05:34.525Z,0.00
2018-04-11T02:06:34.544Z,0.00
2018-04-11T02:07:34.563Z,0.00
2018-04-11T02:08:34.642Z,0.00
2018-04-11T02:09:34.608Z,0.00
2018-04-11T02:10:34.659Z,0.00
2018-04-11T02:11:34.644Z,0.00
2018-04-11T02:12:34.730Z,0.00
2018-04-11T02:13:34.686Z,0.00
2018-04-11T02:14:34.740Z,0.00
2018-04-11T02:15:34.729Z,0.00
2018-04-11T02:16:34.772Z,0.00
2018-04-11T02:17:34.767Z,0.00
2018-04-11T02:18:34.819Z,0.00
2018-04-11T02:19:34.819Z,0.00
2018-04-11T02:20:34.822Z,0.00
2018-04-11T02:21:34.875Z,0.00
2018-04-11T02:22:34.897Z,0.00
2018-04-11T02:23:34.952Z,0.00
2018-04-11T02:24:34.899Z,0.00
2018-04-11T02:25:34.946Z,0.00
2018-04-11T02:26:34.942Z,0.00
2018-04-11T02:27:34.987Z,0.00
2018-04-11T02:28:34.982Z,0.00
2018-04-11T02:29:35.164Z,0.00
2018-04-11T02:30:35.020Z,0.00
2018-04-11T02:31:35.112Z,0.00
2018-04-11T02:32:35.060Z,0.00
2018-04-11T02:33:35.080Z,0.00
2018-04-11T02:34:35.174Z,0.00
2018-04-11T02:35:35.178Z,0.00
2018-04-11T02:36:35.146Z,0.00
2018-04-11T02:37:35.160Z,0.00
2018-04-11T02:38:35.218Z,0.00
2018-04-11T02:39:35.201Z,0.00
2018-04-11T02:40:35.221Z,0.00
2018-04-11T02:41:35.240Z,0.00
2018-04-11T02:42:35.277Z,0.00
2018-04-11T02:43:35.280Z,0.00
2018-04-11T02:44:35.332Z,0.00
2018-04-11T02:45:35.320Z,0.00
2018-04-11T02:46:35.341Z,0.00
2018-04-11T02:47:35.359Z,0.00
2018-04-11T02:48:35.377Z,0.00
2018-04-11T02:49:35.444Z,0.00
2018-04-11T02:50:35.447Z,0.00
2018-04-11T02:51:35.437Z,0.00
2018-04-11T02:52:35.466Z,0.00
2018-04-11T02:53:35.476Z,0.00
2018-04-11T02:54:35.627Z,0.00
2018-04-11T02:55:35.515Z,0.00
2018-04-11T02:56:35.605Z,0.00
2018-04-11T02:57:35.556Z,0.00
2018-04-11T02:58:35.587Z,0.00
2018-04-11T02:59:35.595Z,0.00
2018-04-11T03:00:35.615Z,0.00
2018-04-11T05:00:06.385Z,72.00
2018-04-11T05:01:06.367Z,76.00
2018-04-11T05:02:59.304Z,96.00
2018-04-11T05:03:59.290Z,100.00
2018-04-11T05:05:52.210Z,112.00
2018-04-11T05:06:52.215Z,120.00
2018-04-11T05:08:45.154Z,128.00
2018-04-11T05:09:45.170Z,136.00
2018-04-11T05:10:58.349Z,140.00
2018-04-11T05:11:58.435Z,148.00
2018-04-11T05:13:51.380Z,156.00
2018-04-11T05:14:51.385Z,160.00
2018-04-11T05:16:44.808Z,176.00
2018-04-11T05:17:44.870Z,192.00
2018-04-11T05:19:37.762Z,212.00
2018-04-11T05:20:37.757Z,220.00
2018-04-11T05:22:30.704Z,212.00
2018-04-11T05:23:30.719Z,208.00
2018-04-11T05:25:23.677Z,212.00
2018-04-11T05:26:23.661Z,212.00
2018-04-11T05:28:16.581Z,212.00
2018-04-11T05:29:16.801Z,220.00
2018-04-11T05:31:09.535Z,248.00
2018-04-11T05:32:09.518Z,260.00
2018-04-11T05:34:02.716Z,284.00
2018-04-11T05:35:02.460Z,312.00
2018-04-11T05:36:55.443Z,400.00
2018-04-11T05:37:55.393Z,456.00
2018-04-11T05:39:48.509Z,584.00
2018-04-11T05:40:48.347Z,640.00
2018-04-11T05:42:41.492Z,704.00
2018-04-11T05:43:41.291Z,696.00
2018-04-11T05:45:34.338Z,668.00
2018-04-11T05:46:34.265Z,648.00
2018-04-11T05:48:27.222Z,620.00
2018-04-11T05:49:27.217Z,604.00
2018-04-11T05:51:20.185Z,580.00
2018-04-11T05:52:20.161Z,592.00
2018-04-11T05:54:13.117Z,624.00
2018-04-11T05:55:13.110Z,640.00
2018-04-11T05:57:06.041Z,660.00
2018-04-11T05:58:06.050Z,672.00
2018-04-11T05:59:59.001Z,696.00
2018-04-11T06:00:59.049Z,712.00
2018-04-11T06:02:51.950Z,732.00
2018-04-11T06:03:51.943Z,740.00
2018-04-11T06:05:46.375Z,788.00
2018-04-11T06:06:46.425Z,848.00
2018-04-11T06:08:39.408Z,1008.00
2018-04-11T06:09:39.338Z,1056.00
2018-04-11T06:11:32.338Z,1044.00
2018-04-11T06:12:32.299Z,1036.00
2018-04-11T06:14:25.327Z,972.00
2018-04-11T06:15:25.262Z,928.00
2018-04-11T06:17:18.175Z,900.00
2018-04-11T06:18:18.236Z,912.00
2018-04-11T06:20:12.752Z,880.00
2018-04-11T06:21:12.641Z,860.00
2018-04-11T06:23:06.087Z,832.00
2018-04-11T06:24:06.083Z,816.00
2018-04-11T06:26:02.181Z,744.00
2018-04-11T06:27:02.114Z,700.00
2018-04-11T06:28:55.164Z,600.00
2018-04-11T06:29:55.152Z,564.00
2018-04-11T06:31:48.511Z,560.00
2018-04-11T06:32:48.589Z,608.00
2018-04-11T06:34:41.468Z,720.00
2018-04-11T06:35:41.502Z,728.00
2018-04-11T06:37:34.390Z,644.00
2018-04-11T06:38:34.461Z,628.00
2018-04-11T06:40:27.384Z,724.00
2018-04-11T06:41:27.359Z,808.00
2018-04-11T06:43:20.381Z,960.00
2018-04-11T06:44:20.300Z,1028.00
2018-04-11T06:46:13.287Z,1128.00
2018-04-11T06:47:13.277Z,1168.00
2018-04-11T06:49:06.817Z,1248.00
2018-04-11T06:50:06.686Z,1248.00
2018-04-11T06:51:59.755Z,1164.00
2018-04-11T06:52:59.659Z,1108.00
2018-04-11T06:54:53.437Z,1112.00
2018-04-11T06:55:53.167Z,1220.00
2018-04-11T06:56:53.280Z,1364.00
2018-04-11T06:57:53.206Z,1504.00
2018-04-11T06:58:53.349Z,1616.00
2018-04-11T06:59:53.265Z,1696.00
2018-04-11T07:00:53.278Z,1784.00
2018-04-11T07:01:53.283Z,1832.00
2018-04-11T07:02:53.394Z,1800.00
2018-04-11T07:03:53.322Z,1704.00
2018-04-11T07:04:53.460Z,1560.00
2018-04-11T07:05:53.374Z,1388.00
2018-04-11T07:06:53.381Z,1200.00
2018-04-11T07:07:53.405Z,1032.00
2018-04-11T07:08:53.426Z,876.00
2018-04-11T07:09:53.517Z,752.00
2018-04-11T07:10:53.464Z,668.00
2018-04-11T07:11:53.557Z,632.00
2018-04-11T07:12:53.519Z,624.00
2018-04-11T07:13:53.541Z,640.00
2018-04-11T07:14:53.551Z,684.00
2018-04-11T07:15:53.660Z,736.00
2018-04-11T07:16:53.634Z,784.00
2018-04-11T07:17:53.638Z,824.00
2018-04-11T07:18:53.632Z,876.00
2018-04-11T07:19:53.696Z,956.00
2018-04-11T07:20:53.671Z,1012.00
2018-04-11T07:21:53.699Z,1028.00
2018-04-11T07:22:53.735Z,1032.00
2018-04-11T07:23:53.758Z,1048.00
2018-04-11T07:24:53.776Z,1048.00
2018-04-11T07:25:53.779Z,976.00
2018-04-11T07:26:53.790Z,884.00
2018-04-11T07:27:53.812Z,840.00
2018-04-11T07:28:53.845Z,824.00
2018-04-11T07:29:53.857Z,820.00
2018-04-11T07:30:53.952Z,840.00
2018-04-11T07:31:53.901Z,896.00
2018-04-11T07:32:53.974Z,1000.00
2018-04-11T07:33:53.935Z,1140.00
2018-04-11T07:34:53.958Z,1304.00
2018-04-11T07:35:53.976Z,1452.00
2018-04-11T07:36:54.028Z,1524.00
2018-04-11T07:37:54.054Z,1540.00
2018-04-11T07:38:54.042Z,1580.00
2018-04-11T07:39:54.068Z,1668.00
2018-04-11T07:40:54.085Z,1744.00
2018-04-11T07:41:54.092Z,1728.00
2018-04-11T07:42:54.120Z,1624.00
2018-04-11T07:43:54.251Z,1460.00
2018-04-11T07:44:54.175Z,1296.00
2018-04-11T07:45:54.184Z,1172.00
2018-04-11T07:46:54.223Z,1092.00
2018-04-11T07:47:54.219Z,1056.00
2018-04-11T07:48:54.271Z,1032.00
2018-04-11T07:49:54.303Z,1020.00
2018-04-11T07:50:54.301Z,1032.00
2018-04-11T07:51:54.303Z,1048.00
2018-04-11T07:52:54.408Z,1088.00
2018-04-11T07:53:54.389Z,1152.00
2018-04-11T07:54:54.373Z,1244.00
2018-04-11T07:55:54.389Z,1368.00
2018-04-11T07:56:54.447Z,1488.00
2018-04-11T07:57:54.422Z,1616.00
2018-04-11T07:58:54.445Z,1780.00
2018-04-11T07:59:54.502Z,2004.00
2018-04-11T08:00:54.484Z,2228.00
2018-04-11T08:01:54.507Z,2384.00
2018-04-11T08:02:54.599Z,2468.00
2018-04-11T08:03:54.557Z,2484.00
2018-04-11T08:04:54.566Z,2452.00
2018-04-11T08:05:54.588Z,2424.00
2018-04-11T08:06:54.636Z,2400.00
2018-04-11T08:07:54.752Z,2280.00
2018-04-11T08:08:54.703Z,2000.00
2018-04-11T08:09:54.680Z,1688.00
2018-04-11T08:10:54.850Z,1444.00
2018-04-11T08:11:54.886Z,1276.00
2018-04-11T08:12:55.182Z,1176.00
2018-04-11T08:13:55.067Z,1128.00
2018-04-11T08:14:54.867Z,1120.00
2018-04-11T08:15:54.868Z,1132.00
2018-04-11T08:16:54.818Z,1124.00
2018-04-11T08:17:54.870Z,1088.00
2018-04-11T08:18:54.970Z,1068.00
2018-04-11T08:19:54.924Z,1092.00
2018-04-11T08:20:54.998Z,1200.00
2018-04-11T08:21:54.918Z,1376.00
2018-04-11T08:22:54.941Z,1584.00
2018-04-11T08:23:54.967Z,1772.00
2018-04-11T08:24:55.003Z,2020.00
2018-04-11T08:25:55.034Z,2476.00
2018-04-11T08:26:55.096Z,3100.00
2018-04-11T08:27:55.137Z,3616.00
2018-04-11T08:28:55.761Z,3720.00
2018-04-11T08:29:55.711Z,3404.00
2018-04-11T08:30:55.195Z,2840.00
2018-04-11T08:31:55.257Z,2284.00
2018-04-11T08:32:55.232Z,1852.00
2018-04-11T08:33:56.203Z,1568.00
2018-04-11T08:34:55.250Z,1400.00
2018-04-11T08:35:56.286Z,1320.00
2018-04-11T08:36:55.319Z,1264.00
2018-04-11T08:37:55.357Z,1256.00
2018-04-11T08:38:55.350Z,1272.00
2018-04-11T08:39:55.404Z,1296.00
2018-04-11T08:40:55.361Z,1316.00
2018-04-11T08:41:55.377Z,1320.00
2018-04-11T08:42:55.507Z,1332.00
2018-04-11T08:43:55.449Z,1392.00
2018-04-11T08:44:55.450Z,1504.00
2018-04-11T08:45:55.459Z,1624.00
2018-04-11T08:46:55.531Z,1680.00
2018-04-11T08:47:55.560Z,1640.00
2018-04-11T08:48:55.496Z,1564.00
2018-04-11T08:49:55.574Z,1508.00
2018-04-11T08:50:55.596Z,1444.00
2018-04-11T08:51:55.647Z,1404.00
2018-04-11T08:52:55.599Z,1408.00
2018-04-11T08:53:55.683Z,1444.00
2018-04-11T08:54:55.693Z,1512.00
2018-04-11T08:55:55.688Z,1560.00
2018-04-11T08:56:55.718Z,1604.00
2018-04-11T08:57:55.683Z,1632.00
2018-04-11T08:58:55.758Z,1672.00
2018-04-11T08:59:55.881Z,1748.00
2018-04-11T09:00:56.583Z,1864.00
